createdAt,value
2022-08-02T14:15:48.701Z,98240.59
2022-08-02T14:20:53.608Z,98237.41
2022-08-02T14:25:58.920Z,98245.81
2022-08-02T14:31:05.070Z,98237.44
2022-08-02T14:36:09.717Z,98239.31
2022-08-02T14:41:14.007Z,98244.06
2022-08-02T14:46:19.953Z,98227.91
2022-08-02T14:51:24.674Z,98225.81
2022-08-02T14:56:29.416Z,98219.38
2022-08-02T15:01:35.442Z,98218.94
2022-08-02T15:06:39.968Z,98217.47
2022-08-02T15:11:47.876Z,98213.13
2022-08-02T15:16:58.007Z,98211.47
2022-08-02T15:22:03.350Z,98207.44
2022-08-02T15:27:13.111Z,98193.59
2022-08-02T15:32:19.989Z,98196.41
2022-08-02T15:37:25.372Z,98200.25
2022-08-02T15:42:30.240Z,98199.56
2022-08-02T15:47:36.937Z,98188.72
2022-08-02T15:52:41.491Z,98186.84
2022-08-02T15:57:46.901Z,98183.91
2022-08-02T16:02:52.600Z,98191.66
2022-08-02T16:07:58.151Z,98183.25
2022-08-02T16:13:16.672Z,98186.75
2022-08-02T16:18:22.379Z,98178.69
2022-08-02T16:23:59.592Z,98178.94
2022-08-02T16:28:51.034Z,98170.56
2022-08-02T16:33:57.415Z,98185.78
2022-08-02T16:39:02.064Z,98175.56
2022-08-02T16:44:06.729Z,98178.94
2022-08-02T16:50:04.128Z,98178.69
2022-08-02T16:54:38.221Z,98173.16
2022-08-02T16:59:45.231Z,98165.50
2022-08-02T17:05:04.161Z,98182.53
2022-08-02T17:10:10.226Z,98176.09
2022-08-02T17:16:17.034Z,98176.19
2022-08-02T17:20:40.720Z,98180.31
2022-08-02T17:25:52.429Z,98166.09
2022-08-02T17:30:57.240Z,98161.28
2022-08-02T17:36:03.199Z,98166.97
2022-08-02T17:41:07.621Z,98174.16
2022-08-02T17:46:19.603Z,98181.28
2022-08-02T17:51:32.967Z,98180.19
2022-08-02T17:56:52.047Z,98175.28
2022-08-02T18:01:58.418Z,98186.16
2022-08-02T18:07:11.217Z,98185.09
2022-08-02T18:12:21.338Z,98175.47
2022-08-02T18:17:26.044Z,98188.88
2022-08-02T18:22:35.131Z,98190.41
2022-08-02T18:27:41.815Z,98185.31
2022-08-02T18:33:55.168Z,98178.97
2022-08-02T18:38:16.097Z,98182.75
2022-08-02T18:43:25.747Z,98185.44
2022-08-02T18:48:33.875Z,98196.16
2022-08-02T18:53:43.267Z,98194.19
2022-08-02T18:58:47.735Z,98185.00
2022-08-02T19:03:52.887Z,98190.47
2022-08-02T19:09:11.198Z,98189.88
2022-08-02T19:14:27.804Z,98193.09
2022-08-02T19:19:33.062Z,98185.03
2022-08-02T19:24:39.137Z,98191.88
2022-08-02T19:40:41.873Z,98203.50
2022-08-02T19:45:51.208Z,98208.38
2022-08-02T19:50:59.204Z,98212.41
2022-08-02T19:56:07.275Z,98224.16
2022-08-02T20:01:16.517Z,98216.69
2022-08-02T20:06:29.622Z,98211.41
2022-08-02T20:11:36.149Z,98221.81
2022-08-02T20:16:42.441Z,98225.69
2022-08-02T20:21:54.169Z,98219.38
2022-08-02T20:27:16.906Z,98221.03
2022-08-02T20:32:26.556Z,98216.63
2022-08-02T20:38:00.219Z,98217.72
2022-08-02T20:42:57.521Z,98216.06
2022-08-02T20:48:01.899Z,98226.00
2022-08-02T20:53:08.154Z,98229.25
2022-08-02T20:58:31.056Z,98235.41
2022-08-02T21:03:39.769Z,98229.25
2022-08-02T21:08:46.069Z,98232.63
2022-08-02T21:14:08.308Z,98229.88
2022-08-02T21:19:13.744Z,98235.00
2022-08-02T21:24:18.153Z,98225.75
2022-08-02T21:29:33.220Z,98217.38
2022-08-02T21:34:37.858Z,98217.53
2022-08-02T21:39:42.355Z,98219.50
2022-08-02T21:44:55.580Z,98219.50
2022-08-02T21:50:13.518Z,98218.97
2022-08-02T21:55:24.005Z,98218.91
2022-08-02T22:00:42.598Z,98217.00
2022-08-02T22:05:47.449Z,98220.69
2022-08-02T22:11:04.526Z,98225.72
2022-08-02T22:16:22.850Z,98233.00
2022-08-02T22:21:32.389Z,98226.88
2022-08-02T22:26:51.029Z,98234.47
2022-08-02T22:31:56.693Z,98241.66
2022-08-02T22:37:02.000Z,98237.56
2022-08-02T22:42:10.365Z,98244.34
2022-08-02T22:47:16.071Z,98241.94
2022-08-02T22:52:21.039Z,98249.94
2022-08-02T22:57:31.074Z,98251.09
2022-08-02T22:58:48.175Z,98207.88
2022-08-02T22:59:06.041Z,98198.78
2022-08-02T23:02:37.650Z,98239.16
2022-08-02T23:07:42.902Z,98249.47
2022-08-02T23:12:47.341Z,98248.16
2022-08-02T23:18:25.190Z,98246.22
2022-08-02T23:23:29.903Z,98246.22
2022-08-02T23:28:34.609Z,98245.03
2022-08-02T23:34:03.778Z,98245.69
2022-08-02T23:39:05.600Z,98255.75
2022-08-02T23:44:14.869Z,98247.81
2022-08-02T23:49:22.820Z,98262.00
2022-08-02T23:54:27.360Z,98255.59
2022-08-02T23:59:33.049Z,98257.31
